Time;durP1;ratioP1;P1;durP2;ratioP2;P2;SDS_P1;SDS_P2;PMS_P1;PMS_P2;Temp;Humidity;BMP_temperature;BMP_pressure;BME280_temperature;BME280_humidity;BME280_pressure;Samples;Min_cycle;Max_cycle;Signal;HPM_P1;HPM_P2
2022/04/05 00:01:43;;;;;;;1.70;1.50;;;7.30;99.90;;;;;;5065961;28;20191;-45
2022/04/05 00:04:10;;;;;;;1.90;1.60;;;7.30;99.90;;;;;;5067659;28;20666;-42
2022/04/05 00:06:37;;;;;;;1.67;1.57;;;7.40;99.90;;;;;;5064669;28;20596;-46
2022/04/05 00:09:05;;;;;;;1.73;1.63;;;7.40;99.90;;;;;;5068994;28;20272;-42
2022/04/05 00:11:33;;;;;;;1.30;1.30;;;7.40;99.90;;;;;;5068013;28;20256;-42
2022/04/05 00:14:01;;;;;;;1.50;1.40;;;7.40;99.90;;;;;;5067139;28;20202;-41
2022/04/05 00:16:28;;;;;;;2.83;1.43;;;7.40;99.90;;;;;;5062122;28;20264;-45
2022/04/05 00:18:55;;;;;;;2.80;1.40;;;7.40;99.90;;;;;;5065284;28;20293;-51
2022/04/05 00:21:23;;;;;;;2.03;1.30;;;7.40;99.90;;;;;;5062746;28;20196;-51
2022/04/05 00:23:50;;;;;;;2.10;1.50;;;7.40;99.90;;;;;;5065178;28;20209;-42
2022/04/05 00:26:17;;;;;;;1.50;1.40;;;7.50;99.90;;;;;;5061454;28;20190;-48
2022/04/05 00:28:45;;;;;;;1.60;1.50;;;7.50;99.90;;;;;;5064346;28;20652;-41
2022/04/05 00:31:13;;;;;;;1.33;1.23;;;7.50;99.90;;;;;;5060787;28;20197;-41
2022/04/05 00:33:41;;;;;;;2.87;1.40;;;7.50;99.90;;;;;;5061395;28;20211;-41
2022/04/05 00:36:08;;;;;;;2.60;1.77;;;7.50;99.90;;;;;;5059747;28;20206;-45
2022/04/05 00:38:35;;;;;;;2.57;1.53;;;7.60;99.90;;;;;;5061684;28;20198;-44
2022/04/05 00:41:02;;;;;;;1.70;1.60;;;7.50;99.90;;;;;;5054833;28;20554;-41
2022/04/05 00:43:29;;;;;;;1.87;1.40;;;7.50;99.90;;;;;;5065362;28;20207;-41
2022/04/05 00:45:58;;;;;;;1.40;1.30;;;7.60;99.90;;;;;;5069888;28;20203;-41
2022/04/05 00:48:30;;;;;;;2.83;1.50;;;7.60;99.90;;;;;;5065892;28;20241;-43
2022/04/05 00:50:57;;;;;;;2.20;1.40;;;7.60;99.90;;;;;;5070264;28;20193;-43
2022/04/05 00:53:26;;;;;;;2.23;1.50;;;7.60;99.90;;;;;;5067620;28;20197;-41
2022/04/05 00:55:55;;;;;;;4.50;1.57;;;7.60;99.90;;;;;;5069668;28;20213;-42
2022/04/05 00:58:25;;;;;;;2.13;1.30;;;7.60;99.90;;;;;;5067145;28;20223;-43
2022/04/05 01:00:53;;;;;;;1.87;1.50;;;7.60;99.90;;;;;;5069552;28;20239;-45
2022/04/05 01:03:22;;;;;;;2.53;1.43;;;7.70;99.90;;;;;;5064449;28;20288;-44
2022/04/05 01:05:51;;;;;;;4.47;1.60;;;7.70;99.90;;;;;;5068756;28;20238;-46
2022/04/05 01:08:20;;;;;;;2.10;1.30;;;7.80;99.90;;;;;;5064329;28;20230;-42
2022/04/05 01:10:48;;;;;;;4.23;1.70;;;7.80;99.90;;;;;;5066701;28;20208;-43
2022/04/05 01:13:15;;;;;;;5.17;1.40;;;7.80;99.90;;;;;;5062983;28;20197;-42
2022/04/05 01:15:42;;;;;;;4.03;1.10;;;7.80;99.90;;;;;;5065226;28;20246;-43
2022/04/05 01:18:09;;;;;;;3.57;1.77;;;7.80;99.90;;;;;;5089245;28;20239;-43
2022/04/05 01:20:38;;;;;;;5.27;1.73;;;7.80;99.90;;;;;;5064492;28;20632;-43
2022/04/05 01:23:05;;;;;;;4.20;1.47;;;7.80;99.90;;;;;;5061098;28;20194;-43
2022/04/05 01:25:33;;;;;;;4.27;1.20;;;7.90;99.90;;;;;;5063526;28;20197;-43
2022/04/05 01:28:00;;;;;;;11.03;1.87;;;7.90;99.90;;;;;;5058910;28;20601;-49
2022/04/05 01:30:28;;;;;;;4.63;1.50;;;7.90;99.90;;;;;;5056543;28;20645;-44
2022/04/05 01:32:59;;;;;;;3.87;1.30;;;7.80;99.90;;;;;;5056619;28;20252;-43
2022/04/05 01:35:26;;;;;;;6.47;1.50;;;7.80;99.90;;;;;;5059650;28;20281;-42
2022/04/05 01:37:53;;;;;;;7.93;1.50;;;7.80;99.90;;;;;;5057597;28;20190;-43
2022/04/05 01:40:20;;;;;;;4.87;1.53;;;7.80;99.90;;;;;;5056184;28;20201;-44
2022/04/05 01:42:49;;;;;;;3.70;1.20;;;7.90;99.90;;;;;;5060025;28;20200;-45
2022/04/05 01:45:16;;;;;;;2.53;1.07;;;7.90;99.90;;;;;;5068743;28;20225;-43
2022/04/05 01:47:43;;;;;;;6.13;1.43;;;7.90;99.90;;;;;;5067472;28;20192;-44
2022/04/05 01:50:10;;;;;;;2.93;1.00;;;7.90;99.90;;;;;;5066651;28;20204;-43
2022/04/05 01:52:37;;;;;;;3.90;1.60;;;8.00;99.90;;;;;;5068806;28;20257;-42
2022/04/05 01:55:05;;;;;;;3.33;1.53;;;8.00;99.90;;;;;;5066961;28;20239;-43
2022/04/05 01:57:32;;;;;;;8.07;1.77;;;8.00;99.90;;;;;;5068399;28;20668;-43
2022/04/05 02:00:02;;;;;;;10.13;2.13;;;7.90;99.90;;;;;;5065885;28;20200;-43
2022/04/05 02:02:38;;;;;;;4.63;1.50;;;7.80;99.90;;;;;;5065855;28;20254;-41
2022/04/05 02:05:07;;;;;;;2.73;1.10;;;7.80;99.90;;;;;;5065024;28;20246;-43
2022/04/05 02:07:34;;;;;;;7.00;1.30;;;7.60;99.90;;;;;;5066483;28;20644;-44
2022/04/05 02:10:02;;;;;;;6.00;1.20;;;7.60;99.90;;;;;;5061361;28;20628;-42
2022/04/05 02:12:29;;;;;;;6.23;1.60;;;7.60;99.90;;;;;;5058690;28;20283;-46
2022/04/05 02:15:10;;;;;;;7.10;1.50;;;7.60;99.90;;;;;;5063166;28;20362;-43
2022/04/05 02:18:00;;;;;;;6.13;1.67;;;7.60;99.90;;;;;;5057289;28;20232;-43
2022/04/05 02:20:30;;;;;;;4.73;1.47;;;7.50;99.90;;;;;;5062377;28;20736;-42
2022/04/05 02:22:57;;;;;;;5.00;1.73;;;7.50;99.90;;;;;;5057502;28;20904;-42
2022/04/05 02:25:44;;;;;;;4.73;1.43;;;7.50;99.90;;;;;;5060040;28;20205;-42
2022/04/05 02:28:13;;;;;;;5.23;1.30;;;7.50;99.90;;;;;;5058635;28;20206;-42
2022/04/05 02:30:48;;;;;;;6.47;1.40;;;7.60;99.90;;;;;;5071605;28;20770;-41
2022/04/05 02:33:19;;;;;;;4.60;1.20;;;7.60;99.90;;;;;;5070845;28;20205;-42
2022/04/05 02:35:48;;;;;;;7.83;1.73;;;7.60;99.90;;;;;;5067676;28;20209;-43
2022/04/05 02:38:16;;;;;;;6.83;1.40;;;7.60;99.90;;;;;;5070844;28;20215;-42
2022/04/05 02:40:44;;;;;;;9.40;1.77;;;7.60;99.90;;;;;;5056600;28;20278;-42
2022/04/05 02:43:14;;;;;;;2.87;1.20;;;7.50;99.90;;;;;;5071209;28;20207;-43
2022/04/05 02:45:42;;;;;;;1.87;1.00;;;7.40;99.90;;;;;;5071763;28;20192;-45
2022/04/05 02:48:13;;;;;;;4.07;1.17;;;7.40;99.90;;;;;;5066793;28;20199;-42
2022/04/05 02:50:41;;;;;;;5.97;1.40;;;7.30;99.90;;;;;;5056505;28;20297;-41
2022/04/05 02:53:08;;;;;;;3.23;1.10;;;7.30;99.90;;;;;;5065289;28;20200;-42
2022/04/05 02:55:35;;;;;;;2.53;1.00;;;7.20;99.90;;;;;;5061011;28;20212;-41
2022/04/05 02:58:03;;;;;;;3.37;1.47;;;7.20;99.90;;;;;;5069624;28;20244;-42
2022/04/05 03:00:35;;;;;;;5.43;1.10;;;7.10;99.90;;;;;;5058637;28;20226;-46
2022/04/05 03:03:07;;;;;;;3.13;1.23;;;7.10;99.90;;;;;;5063435;28;20195;-44
2022/04/05 03:05:37;;;;;;;4.80;1.17;;;7.10;99.90;;;;;;5072276;28;20204;-41
2022/04/05 03:08:07;;;;;;;4.27;1.20;;;7.10;99.90;;;;;;5071448;28;20316;-42
2022/04/05 03:10:36;;;;;;;3.17;1.30;;;7.10;99.90;;;;;;5068833;28;20228;-42
2022/04/05 03:13:05;;;;;;;4.67;1.43;;;7.10;99.90;;;;;;5067202;28;20263;-42
2022/04/05 03:15:33;;;;;;;4.53;1.77;;;7.10;99.90;;;;;;5067233;28;20242;-42
2022/04/05 03:18:02;;;;;;;5.10;1.57;;;7.10;99.90;;;;;;5061634;28;20691;-43
2022/04/05 03:20:32;;;;;;;3.73;1.33;;;7.10;99.90;;;;;;5068911;28;20216;-47
2022/04/05 03:23:01;;;;;;;7.03;1.63;;;7.20;99.90;;;;;;5061292;28;20206;-42
2022/04/05 03:25:29;;;;;;;8.23;1.40;;;7.20;99.90;;;;;;5067077;28;20193;-42
2022/04/05 03:28:01;;;;;;;2.60;1.10;;;7.10;99.90;;;;;;5066658;28;20202;-42
2022/04/05 03:30:28;;;;;;;5.50;1.40;;;7.20;99.90;;;;;;5070597;28;20200;-45
2022/04/05 03:32:58;;;;;;;4.67;1.17;;;7.20;99.90;;;;;;5086387;28;20207;-42
2022/04/05 03:35:26;;;;;;;5.07;1.47;;;7.20;99.90;;;;;;5063111;28;20201;-43
2022/04/05 03:37:55;;;;;;;5.57;1.13;;;7.20;99.90;;;;;;5060853;28;20218;-43
2022/04/05 03:40:24;;;;;;;8.10;1.70;;;7.20;99.90;;;;;;5060283;28;20766;-45
2022/04/05 03:42:52;;;;;;;3.60;1.30;;;7.20;99.90;;;;;;5070562;28;20231;-43
2022/04/05 03:45:21;;;;;;;10.03;1.70;;;7.20;99.90;;;;;;5070914;28;20628;-44
2022/04/05 03:47:49;;;;;;;7.57;1.70;;;7.20;99.90;;;;;;5068422;28;20211;-43
2022/04/05 03:50:18;;;;;;;5.27;1.63;;;7.20;99.90;;;;;;5068129;28;20210;-45
2022/04/05 03:52:47;;;;;;;7.63;2.00;;;7.20;99.90;;;;;;5071591;28;20215;-44
2022/04/05 03:55:21;;;;;;;3.53;1.40;;;7.20;99.90;;;;;;5070260;28;20194;-42
2022/04/05 03:57:53;;;;;;;5.70;1.70;;;7.20;99.90;;;;;;5067760;28;20223;-48
2022/04/05 04:00:22;;;;;;;3.83;1.20;;;7.20;99.90;;;;;;5071050;28;20281;-49
2022/04/05 04:03:00;;;;;;;6.83;1.47;;;7.20;99.90;;;;;;5069449;28;20204;-47
2022/04/05 04:05:28;;;;;;;4.40;1.30;;;7.20;99.90;;;;;;5071026;28;20251;-48
2022/04/05 04:07:56;;;;;;;4.87;1.50;;;7.20;99.90;;;;;;5063752;28;20626;-45
2022/04/05 04:10:25;;;;;;;3.10;1.37;;;7.20;99.90;;;;;;5067547;28;20198;-42
2022/04/05 04:12:56;;;;;;;3.93;1.57;;;7.10;99.90;;;;;;5063980;28;20217;-43
2022/04/05 04:15:28;;;;;;;4.40;1.50;;;7.10;99.90;;;;;;5070301;28;20708;-44
2022/04/05 04:17:55;;;;;;;3.10;1.10;;;7.20;99.90;;;;;;5077350;28;20221;-43
2022/04/05 04:20:23;;;;;;;3.73;1.23;;;7.10;99.90;;;;;;5067420;28;20202;-43
2022/04/05 04:22:51;;;;;;;5.13;1.30;;;7.10;99.90;;;;;;5091259;28;20297;-41
2022/04/05 04:25:19;;;;;;;2.30;1.13;;;7.10;99.90;;;;;;5065428;28;20303;-43
2022/04/05 04:27:49;;;;;;;9.13;1.50;;;7.10;99.90;;;;;;5066269;28;20277;-42
2022/04/05 04:30:17;;;;;;;5.17;1.50;;;7.10;99.90;;;;;;5065066;28;20201;-44
2022/04/05 04:32:44;;;;;;;4.23;1.07;;;7.10;99.90;;;;;;5064229;28;20791;-43
2022/04/05 04:35:12;;;;;;;4.87;1.13;;;7.10;99.90;;;;;;5063572;28;20578;-43
2022/04/05 04:37:39;;;;;;;2.83;1.20;;;7.10;99.90;;;;;;5059955;28;20203;-41
2022/04/05 04:40:07;;;;;;;3.53;1.30;;;7.10;99.90;;;;;;5060230;28;20672;-43
2022/04/05 04:42:35;;;;;;;2.83;1.30;;;7.10;99.90;;;;;;5059353;28;20243;-43
2022/04/05 04:45:02;;;;;;;5.97;1.10;;;7.10;99.90;;;;;;5069260;28;20195;-44
2022/04/05 04:47:31;;;;;;;2.70;1.20;;;7.10;99.90;;;;;;5069885;28;20202;-47
2022/04/05 04:49:58;;;;;;;5.90;1.33;;;6.50;99.90;;;;;;5066558;28;20663;-46
2022/04/05 04:52:26;;;;;;;3.83;1.17;;;7.10;99.90;;;;;;5069811;28;20201;-45
2022/04/05 04:54:53;;;;;;;7.80;1.47;;;7.10;99.90;;;;;;5066508;28;20202;-42
2022/04/05 04:57:22;;;;;;;3.00;1.43;;;7.10;99.90;;;;;;5068950;28;20313;-42
2022/04/05 04:59:49;;;;;;;5.77;1.20;;;7.10;99.90;;;;;;5065901;28;20690;-41
2022/04/05 05:02:16;;;;;;;5.40;1.50;;;7.10;99.90;;;;;;5068357;28;20207;-41
2022/04/05 05:04:44;;;;;;;8.57;2.00;;;7.10;99.90;;;;;;5063469;28;20225;-42
2022/04/05 05:07:14;;;;;;;3.37;1.23;;;7.00;99.90;;;;;;5067898;28;20194;-45
2022/04/05 05:09:41;;;;;;;4.17;1.53;;;7.00;99.90;;;;;;5063198;28;20206;-41
2022/04/05 05:12:10;;;;;;;5.03;1.83;;;7.00;99.90;;;;;;5070805;28;20315;-42
2022/04/05 05:14:37;;;;;;;3.47;1.50;;;7.00;99.90;;;;;;5061408;28;20260;-42
2022/04/05 05:17:05;;;;;;;3.70;1.63;;;7.00;99.90;;;;;;5065669;28;20259;-42
2022/04/05 05:19:32;;;;;;;3.87;1.60;;;7.00;99.90;;;;;;5058490;28;20585;-42
2022/04/05 05:22:01;;;;;;;4.47;1.70;;;7.10;99.90;;;;;;5065392;28;20197;-40
2022/04/05 05:24:28;;;;;;;3.00;1.50;;;7.10;99.90;;;;;;5058278;28;20198;-41
2022/04/05 05:26:55;;;;;;;2.00;1.20;;;7.00;99.90;;;;;;5056189;28;20212;-42
2022/04/05 05:29:22;;;;;;;4.23;1.53;;;7.10;99.90;;;;;;5057396;28;20194;-41
2022/04/05 05:31:49;;;;;;;3.50;1.50;;;7.10;99.90;;;;;;5056828;28;20191;-41
2022/04/05 05:34:22;;;;;;;2.50;1.30;;;7.10;99.90;;;;;;5055778;28;20283;-41
2022/04/05 05:36:49;;;;;;;4.47;1.20;;;7.10;99.90;;;;;;5056101;28;20648;-44
2022/04/05 05:39:18;;;;;;;4.00;1.37;;;7.10;99.90;;;;;;5056147;28;20662;-44
2022/04/05 05:41:47;;;;;;;3.83;1.80;;;7.00;99.90;;;;;;5062079;28;20199;-43
2022/04/05 05:44:14;;;;;;;3.20;1.30;;;7.00;99.90;;;;;;5069666;28;20284;-44
2022/04/05 05:46:41;;;;;;;2.70;1.13;;;6.90;99.90;;;;;;5067780;28;20197;-45
2022/04/05 05:49:08;;;;;;;4.17;1.30;;;6.80;99.90;;;;;;5066081;28;20196;-43
2022/04/05 05:51:35;;;;;;;5.23;1.50;;;6.80;99.90;;;;;;5068013;28;20577;-43
2022/04/05 05:54:02;;;;;;;2.53;1.03;;;6.80;99.90;;;;;;5069018;28;20534;-41
2022/04/05 05:56:31;;;;;;;2.53;0.80;;;6.80;99.90;;;;;;5065359;28;20218;-43
2022/04/05 05:58:58;;;;;;;3.63;1.10;;;6.80;99.90;;;;;;5068252;28;20628;-44
2022/04/05 06:01:25;;;;;;;3.43;1.10;;;6.80;99.90;;;;;;5065196;28;20201;-44
2022/04/05 06:03:52;;;;;;;2.63;1.30;;;6.80;99.90;;;;;;5066141;28;20743;-45
2022/04/05 06:06:19;;;;;;;1.93;1.17;;;6.80;99.90;;;;;;5068378;28;20293;-43
2022/04/05 06:08:46;;;;;;;2.90;1.10;;;6.90;99.90;;;;;;5070927;28;20548;-43
2022/04/05 06:11:14;;;;;;;4.77;1.60;;;6.90;99.90;;;;;;5066217;28;20245;-45
2022/04/05 06:13:42;;;;;;;4.77;1.60;;;6.90;99.90;;;;;;5065422;28;20206;-44
2022/04/05 06:16:09;;;;;;;3.57;1.60;;;7.00;99.90;;;;;;5064202;28;20229;-43
2022/04/05 06:18:37;;;;;;;2.17;1.17;;;7.00;99.90;;;;;;5064567;28;20680;-46
2022/04/05 06:21:04;;;;;;;4.07;1.43;;;7.00;99.90;;;;;;5073165;28;20577;-44
2022/04/05 06:23:31;;;;;;;4.93;1.40;;;7.10;99.90;;;;;;5060813;28;20275;-50
2022/04/05 06:25:58;;;;;;;5.43;1.90;;;7.10;99.90;;;;;;5064200;28;20736;-42
2022/04/05 06:28:25;;;;;;;4.80;1.70;;;7.20;99.90;;;;;;5067898;28;20189;-44
2022/04/05 06:30:54;;;;;;;3.63;2.07;;;7.20;99.90;;;;;;5072430;28;20206;-41
2022/04/05 06:33:22;;;;;;;3.47;1.60;;;7.30;99.90;;;;;;5067186;28;20229;-44
2022/04/05 06:35:52;;;;;;;2.87;1.60;;;7.30;99.90;;;;;;5068787;28;20221;-43
2022/04/05 06:38:20;;;;;;;6.17;1.87;;;7.30;99.90;;;;;;5071677;28;20223;-45
2022/04/05 06:40:48;;;;;;;5.03;1.93;;;7.40;99.90;;;;;;5057896;28;20659;-44
2022/04/05 06:43:16;;;;;;;4.80;1.50;;;7.40;99.90;;;;;;5066984;28;20618;-42
2022/04/05 06:45:44;;;;;;;2.60;1.57;;;7.50;99.90;;;;;;5068759;28;20206;-46
2022/04/05 06:48:13;;;;;;;2.60;1.33;;;7.50;99.90;;;;;;5062675;28;20200;-46
2022/04/05 06:50:40;;;;;;;2.67;1.53;;;7.50;99.90;;;;;;5060943;28;20269;-46
2022/04/05 06:53:09;;;;;;;4.40;1.63;;;7.60;99.90;;;;;;5068327;28;20578;-44
2022/04/05 06:55:37;;;;;;;3.87;1.50;;;7.70;99.90;;;;;;5056119;28;20259;-44
2022/04/05 06:58:05;;;;;;;4.00;1.37;;;8.50;99.90;;;;;;5066781;28;20299;-43
2022/04/05 07:00:33;;;;;;;3.23;1.67;;;7.70;99.90;;;;;;5058018;28;20193;-44
2022/04/05 07:03:01;;;;;;;8.23;2.07;;;7.70;99.90;;;;;;5062951;28;20206;-45
2022/04/05 07:05:29;;;;;;;5.73;1.50;;;7.80;99.90;;;;;;5059093;28;20232;-45
2022/04/05 07:07:57;;;;;;;3.63;1.57;;;7.80;99.90;;;;;;5066233;28;20248;-44
2022/04/05 07:10:24;;;;;;;3.40;1.23;;;7.90;99.90;;;;;;5062364;28;20204;-45
2022/04/05 07:12:52;;;;;;;1.77;1.00;;;8.00;99.90;;;;;;5068444;28;20196;-44
2022/04/05 07:15:19;;;;;;;1.77;1.03;;;8.10;99.90;;;;;;5059720;28;20234;-42
2022/04/05 07:17:46;;;;;;;2.60;1.20;;;8.10;99.90;;;;;;5066547;28;20208;-48
2022/04/05 07:20:13;;;;;;;1.33;1.00;;;8.20;99.70;;;;;;5071802;28;20211;-42
2022/04/05 07:22:47;;;;;;;1.10;0.80;;;8.30;99.50;;;;;;5063712;28;20190;-43
2022/04/05 07:25:14;;;;;;;1.13;0.80;;;8.40;98.90;;;;;;5097720;28;20201;-45
2022/04/05 07:27:41;;;;;;;0.70;0.70;;;8.50;98.30;;;;;;5061571;28;20255;-45
2022/04/05 07:30:09;;;;;;;0.70;0.70;;;8.50;97.90;;;;;;5059794;28;20196;-44
2022/04/05 07:32:38;;;;;;;1.03;0.80;;;8.60;97.80;;;;;;5059711;28;20208;-46
2022/04/05 07:35:06;;;;;;;0.80;0.80;;;8.80;97.40;;;;;;5059959;28;20193;-47
2022/04/05 07:37:34;;;;;;;0.73;0.63;;;8.90;96.10;;;;;;5059564;28;20296;-50
2022/04/05 07:40:05;;;;;;;0.63;0.63;;;9.00;94.20;;;;;;5056404;28;20193;-50
2022/04/05 07:42:33;;;;;;;6.33;0.67;;;9.10;92.70;;;;;;5070684;28;20677;-50
2022/04/05 07:45:00;;;;;;;1.00;0.70;;;9.20;92.30;;;;;;5071502;28;20205;-49
2022/04/05 07:47:28;;;;;;;2.57;0.90;;;9.20;91.70;;;;;;5071736;28;20565;-50
2022/04/05 07:49:55;;;;;;;0.67;0.60;;;9.30;91.10;;;;;;5066496;28;20205;-48
2022/04/05 07:52:22;;;;;;;1.73;0.70;;;9.20;90.90;;;;;;5071721;28;20193;-45
2022/04/05 07:54:49;;;;;;;0.63;0.60;;;9.30;90.80;;;;;;5069159;28;20197;-44
2022/04/05 07:57:18;;;;;;;0.63;0.60;;;9.40;90.60;;;;;;5070987;28;20197;-42
2022/04/05 07:59:45;;;;;;;0.57;0.57;;;9.50;90.40;;;;;;5066194;28;20248;-45
2022/04/05 08:02:12;;;;;;;0.93;0.70;;;9.60;90.00;;;;;;5070776;28;20292;-43
2022/04/05 08:04:39;;;;;;;1.67;0.70;;;9.70;89.30;;;;;;5064730;28;20217;-47
2022/04/05 08:07:07;;;;;;;0.60;0.60;;;9.80;86.90;;;;;;5070077;28;20687;-46
2022/04/05 08:09:34;;;;;;;0.50;0.50;;;9.80;85.60;;;;;;5067896;28;20203;-45
2022/04/05 08:12:02;;;;;;;2.30;0.60;;;9.80;86.00;;;;;;5069594;28;20194;-45
2022/04/05 08:14:31;;;;;;;0.80;0.40;;;9.80;84.90;;;;;;5066420;28;20706;-44
2022/04/05 08:16:58;;;;;;;0.90;0.60;;;9.80;84.50;;;;;;5070466;28;20206;-46
2022/04/05 08:19:26;;;;;;;0.53;0.50;;;9.90;83.30;;;;;;5063896;28;20300;-45
2022/04/05 08:21:53;;;;;;;1.27;0.50;;;9.70;80.10;;;;;;5068630;28;20599;-42
2022/04/05 08:24:20;;;;;;;0.63;0.63;;;9.80;80.50;;;;;;5063785;28;20208;-44
2022/04/05 08:26:47;;;;;;;1.43;0.63;;;9.80;81.20;;;;;;5053556;28;20667;-43
2022/04/05 08:29:14;;;;;;;1.37;0.70;;;9.90;79.10;;;;;;5065042;28;20210;-43
2022/04/05 08:31:43;;;;;;;0.60;0.60;;;10.00;77.10;;;;;;5066579;28;20535;-43
2022/04/05 08:34:10;;;;;;;1.23;0.93;;;10.10;77.50;;;;;;5060107;28;20677;-43
2022/04/05 08:36:37;;;;;;;4.30;0.90;;;10.20;77.30;;;;;;5066418;28;20206;-44
2022/04/05 08:39:04;;;;;;;0.80;0.67;;;10.20;75.30;;;;;;5060274;28;20658;-43
2022/04/05 08:41:36;;;;;;;2.47;0.77;;;10.20;75.20;;;;;;5068134;28;20204;-44
2022/04/05 08:44:04;;;;;;;0.60;0.60;;;10.30;74.30;;;;;;5070853;28;20198;-46
2022/04/05 08:46:35;;;;;;;0.70;0.70;;;10.30;72.60;;;;;;5068364;28;20204;-42
2022/04/05 08:49:04;;;;;;;0.80;0.60;;;10.30;71.60;;;;;;5067216;28;20679;-46
2022/04/05 08:51:31;;;;;;;9.90;2.73;;;10.40;71.80;;;;;;5068206;28;20212;-45
2022/04/05 08:53:58;;;;;;;1.73;0.73;;;10.50;71.80;;;;;;5069222;28;20189;-43
2022/04/05 08:56:28;;;;;;;1.70;0.80;;;10.50;69.20;;;;;;5066964;28;20238;-43
2022/04/05 08:58:56;;;;;;;1.27;0.60;;;10.30;68.50;;;;;;5068379;28;20306;-43
2022/04/05 09:01:23;;;;;;;0.60;0.50;;;10.10;69.60;;;;;;5065601;28;20211;-43
2022/04/05 09:03:50;;;;;;;0.60;0.50;;;9.90;71.70;;;;;;5066789;28;20193;-43
2022/04/05 09:06:32;;;;;;;0.60;0.50;;;9.80;72.50;;;;;;5064606;28;20240;-42
2022/04/05 09:09:07;;;;;;;0.60;0.60;;;9.80;73.00;;;;;;5060076;28;20240;-43
2022/04/05 09:11:35;;;;;;;0.43;0.43;;;9.70;73.30;;;;;;5066855;28;20568;-47
2022/04/05 09:14:04;;;;;;;0.30;0.30;;;9.60;73.20;;;;;;5065166;28;20208;-43
2022/04/05 09:16:33;;;;;;;0.50;0.50;;;9.50;74.50;;;;;;5063431;28;20281;-46
2022/04/05 09:19:09;;;;;;;2.10;1.23;;;9.40;74.10;;;;;;5065550;28;20865;-47
2022/04/05 09:21:51;;;;;;;0.30;0.30;;;9.40;73.10;;;;;;5064153;28;20196;-44
2022/04/05 09:24:19;;;;;;;0.93;0.60;;;9.40;73.20;;;;;;5058976;28;20196;-44
2022/04/05 09:26:46;;;;;;;0.50;0.50;;;9.50;73.40;;;;;;5057514;28;20197;-41
2022/04/05 09:29:16;;;;;;;4.43;0.60;;;9.70;73.50;;;;;;5057298;28;20202;-44
2022/04/05 09:31:47;;;;;;;0.60;0.60;;;9.80;72.60;;;;;;5057508;28;20197;-43
2022/04/05 09:34:19;;;;;;;0.77;0.60;;;9.90;72.70;;;;;;5055791;28;20293;-45
2022/04/05 09:36:48;;;;;;;1.30;0.70;;;9.80;71.90;;;;;;5064088;28;20291;-47
2022/04/05 09:39:19;;;;;;;1.17;0.57;;;9.60;71.80;;;;;;5056696;28;20703;-44
2022/04/05 09:41:47;;;;;;;0.50;0.50;;;9.40;70.70;;;;;;5067191;28;20677;-42
2022/04/05 09:44:25;;;;;;;0.73;0.50;;;9.10;69.80;;;;;;5065218;28;20300;-45
2022/04/05 09:47:02;;;;;;;4.20;0.40;;;8.90;70.00;;;;;;5067359;28;20189;-46
2022/04/05 09:49:32;;;;;;;1.33;0.60;;;8.90;70.30;;;;;;5064983;28;20197;-45
2022/04/05 09:52:00;;;;;;;0.50;0.50;;;9.00;71.10;;;;;;5067652;28;20193;-49
2022/04/05 09:54:30;;;;;;;0.53;0.40;;;9.10;69.80;;;;;;5068332;28;20196;-47
2022/04/05 09:57:03;;;;;;;3.50;0.40;;;9.30;68.80;;;;;;5067041;28;20197;-49
2022/04/05 09:59:38;;;;;;;0.30;0.30;;;9.30;68.40;;;;;;5066798;28;20319;-48
2022/04/05 10:02:14;;;;;;;0.97;0.40;;;9.50;67.70;;;;;;5067493;28;20184;-50
2022/04/05 10:05:00;;;;;;;0.87;0.50;;;9.70;67.90;;;;;;5062884;28;20204;-47
2022/04/05 10:07:29;;;;;;;0.50;0.50;;;9.90;68.50;;;;;;5067189;28;20193;-51
2022/04/05 10:09:59;;;;;;;1.70;0.93;;;10.30;67.50;;;;;;5062699;28;20439;-50
2022/04/05 10:12:27;;;;;;;4.23;0.60;;;10.50;66.50;;;;;;5064644;28;20563;-46
2022/04/05 10:14:55;;;;;;;0.60;0.50;;;10.80;65.60;;;;;;5061981;28;20309;-46
2022/04/05 10:17:26;;;;;;;0.40;0.40;;;11.00;64.50;;;;;;5063248;28;20200;-51
2022/04/05 10:19:56;;;;;;;1.23;0.50;;;11.00;59.10;;;;;;5059752;28;20676;-48
2022/04/05 10:22:24;;;;;;;2.70;0.67;;;11.00;57.80;;;;;;5061159;28;20279;-44
2022/04/05 10:24:52;;;;;;;5.70;0.97;;;10.90;56.10;;;;;;5082710;28;20204;-48
2022/04/05 10:27:21;;;;;;;0.47;0.40;;;10.80;56.40;;;;;;5063811;28;20194;-44
2022/04/05 10:29:57;;;;;;;0.90;0.70;;;10.80;56.90;;;;;;5060201;28;20199;-48
2022/04/05 10:32:33;;;;;;;0.70;0.70;;;10.80;57.50;;;;;;5056935;28;20207;-48
2022/04/05 10:35:04;;;;;;;1.40;0.60;;;10.70;58.40;;;;;;5065905;28;20280;-45
2022/04/05 10:37:34;;;;;;;1.60;0.47;;;10.70;59.40;;;;;;5055683;28;20205;-44
2022/04/05 10:40:13;;;;;;;0.70;0.60;;;10.60;60.40;;;;;;5058516;28;20219;-47
2022/04/05 10:42:43;;;;;;;2.40;0.70;;;10.60;60.60;;;;;;5063034;28;20259;-43
2022/04/05 10:45:13;;;;;;;4.20;0.57;;;10.70;59.70;;;;;;5068212;28;20278;-48
2022/04/05 10:47:59;;;;;;;0.73;0.50;;;10.70;58.80;;;;;;5067788;28;20200;-42
2022/04/05 10:50:27;;;;;;;2.83;0.60;;;10.60;58.20;;;;;;5063839;28;20199;-43
2022/04/05 10:53:13;;;;;;;1.57;1.00;;;10.60;58.30;;;;;;5072767;28;20208;-42
2022/04/05 10:56:14;;;;;;;1.33;0.57;;;10.60;57.10;;;;;;5069501;28;20201;-45
2022/04/05 10:59:18;;;;;;;0.90;0.80;;;10.70;55.00;;;;;;5069031;28;20215;-41
2022/04/05 11:01:45;;;;;;;5.30;0.77;;;10.90;54.80;;;;;;5071568;28;20559;-41
2022/04/05 11:04:31;;;;;;;2.50;0.60;;;11.20;54.30;;;;;;5072311;28;20247;-44
2022/04/05 11:07:12;;;;;;;2.20;0.53;;;11.30;52.70;;;;;;5070858;28;20555;-42
2022/04/05 11:09:46;;;;;;;1.03;0.50;;;11.40;52.60;;;;;;5072961;28;20192;-52
2022/04/05 11:12:18;;;;;;;2.67;0.60;;;11.60;52.40;;;;;;5070283;28;20563;-51
2022/04/05 11:14:50;;;;;;;3.60;0.60;;;11.70;49.10;;;;;;5069713;28;20235;-49
2022/04/05 11:17:18;;;;;;;1.60;0.53;;;11.60;47.10;;;;;;5064318;28;20199;-52
2022/04/05 11:19:48;;;;;;;1.57;0.53;;;11.60;46.90;;;;;;5067929;28;20240;-43
2022/04/05 11:22:31;;;;;;;2.67;0.60;;;11.70;47.30;;;;;;5068868;28;20197;-47
2022/04/05 11:25:00;;;;;;;2.37;0.60;;;11.80;47.10;;;;;;5072433;28;20622;-48
2022/04/05 11:27:32;;;;;;;3.83;0.80;;;11.90;45.30;;;;;;5067260;28;20211;-45
2022/04/05 11:30:40;;;;;;;4.03;0.90;;;12.00;44.80;;;;;;5066859;28;20207;-44
2022/04/05 11:33:41;;;;;;;2.37;0.73;;;12.00;45.10;;;;;;5072090;28;20499;-42
2022/04/05 11:36:10;;;;;;;3.80;0.43;;;12.20;44.60;;;;;;5063955;28;20208;-44
2022/04/05 11:38:40;;;;;;;1.17;0.70;;;12.20;43.70;;;;;;5062061;28;20192;-43
2022/04/05 11:41:09;;;;;;;1.80;0.90;;;12.10;43.90;;;;;;5060394;28;20201;-43
2022/04/05 11:43:41;;;;;;;0.70;0.70;;;12.20;44.30;;;;;;5066059;28;20618;-42
2022/04/05 11:46:11;;;;;;;1.03;0.70;;;12.30;44.80;;;;;;5068460;28;20302;-43
2022/04/05 11:48:45;;;;;;;0.87;0.50;;;12.50;44.00;;;;;;5064584;28;20289;-44
2022/04/05 11:51:15;;;;;;;8.50;1.10;;;12.60;44.50;;;;;;5071606;28;20226;-46
2022/04/05 11:53:43;;;;;;;1.00;0.60;;;12.60;43.80;;;;;;5069475;28;20240;-41
2022/04/05 11:56:17;;;;;;;0.67;0.67;;;12.60;42.30;;;;;;5071038;28;20565;-45
2022/04/05 11:58:46;;;;;;;0.50;0.50;;;12.50;42.00;;;;;;5068480;28;20279;-44
2022/04/05 12:01:16;;;;;;;0.50;0.50;;;12.60;43.10;;;;;;5070028;28;20292;-43
2022/04/05 12:03:52;;;;;;;0.60;0.60;;;12.70;43.70;;;;;;5065052;28;20243;-43
2022/04/05 12:06:21;;;;;;;2.87;0.73;;;12.70;43.50;;;;;;5067773;28;20197;-43
2022/04/05 12:08:50;;;;;;;1.70;0.53;;;12.60;42.20;;;;;;5060894;28;20276;-45
2022/04/05 12:11:18;;;;;;;1.03;0.70;;;12.30;41.90;;;;;;5064616;28;20251;-44
2022/04/05 12:13:57;;;;;;;1.03;0.57;;;12.20;41.90;;;;;;5063577;28;20289;-46
2022/04/05 12:16:26;;;;;;;0.60;0.60;;;12.20;41.00;;;;;;5066658;28;20280;-42
2022/04/05 12:18:55;;;;;;;0.83;0.50;;;12.10;40.70;;;;;;5065607;28;20197;-45
2022/04/05 12:21:24;;;;;;;0.70;0.60;;;12.00;39.80;;;;;;5062140;28;20198;-44
2022/04/05 12:23:53;;;;;;;1.97;0.70;;;12.00;39.30;;;;;;5063507;28;20571;-45
2022/04/05 12:26:23;;;;;;;7.80;0.90;;;11.90;39.00;;;;;;5070912;28;20213;-46
2022/04/05 12:28:54;;;;;;;1.83;0.83;;;11.90;38.30;;;;;;5064422;28;20209;-45
2022/04/05 12:31:23;;;;;;;0.80;0.60;;;12.00;38.40;;;;;;5057690;28;20207;-47
2022/04/05 12:33:57;;;;;;;0.53;0.53;;;11.90;38.40;;;;;;5060828;28;20207;-45
2022/04/05 12:36:26;;;;;;;1.33;0.80;;;11.90;37.80;;;;;;5057570;28;20193;-47
2022/04/05 12:38:53;;;;;;;3.23;0.83;;;11.80;38.80;;;;;;5061188;28;20200;-45
2022/04/05 12:41:21;;;;;;;0.40;0.40;;;11.80;38.80;;;;;;5055904;28;20230;-43
2022/04/05 12:44:06;;;;;;;0.80;0.53;;;11.90;39.00;;;;;;5067058;28;20299;-44
2022/04/05 12:46:38;;;;;;;0.73;0.50;;;12.10;39.20;;;;;;5067726;28;20570;-44
2022/04/05 12:49:25;;;;;;;4.60;0.80;;;12.20;38.90;;;;;;5063770;28;20202;-44
2022/04/05 12:51:53;;;;;;;1.40;0.87;;;12.40;39.60;;;;;;5068004;28;20618;-45
2022/04/05 12:54:29;;;;;;;0.60;0.60;;;12.50;39.90;;;;;;5069570;28;20206;-49
2022/04/05 12:57:19;;;;;;;1.03;0.80;;;12.60;40.40;;;;;;5067459;28;20189;-46
2022/04/05 12:59:49;;;;;;;2.13;0.70;;;12.70;40.70;;;;;;5067986;28;20227;-45
2022/04/05 13:02:18;;;;;;;3.87;0.70;;;12.90;40.60;;;;;;5066832;28;20196;-43
2022/04/05 13:04:48;;;;;;;1.37;0.80;;;13.10;40.20;;;;;;5065359;28;20197;-48
2022/04/05 13:07:15;;;;;;;0.70;0.70;;;13.10;40.00;;;;;;5066848;28;20204;-47
2022/04/05 13:09:43;;;;;;;2.80;0.70;;;13.10;40.10;;;;;;5066944;28;20208;-42